createdAt,value
2023-03-17T00:03:53.631Z,5.25
2023-03-17T00:08:12.021Z,4.60
2023-03-17T00:12:20.117Z,5.70
2023-03-17T00:16:28.208Z,5.72
2023-03-17T00:20:36.353Z,5.22
2023-03-17T00:24:39.237Z,5.72
2023-03-17T00:28:46.177Z,6.72
2023-03-17T00:32:53.101Z,6.20
2023-03-17T00:36:57.573Z,5.93
2023-03-17T00:41:11.688Z,5.43
2023-03-17T00:45:16.431Z,5.68
2023-03-17T00:49:24.068Z,8.10
2023-03-17T00:53:28.407Z,5.32
2023-03-17T00:57:32.026Z,5.90
2023-03-17T01:01:37.817Z,4.72
2023-03-17T01:05:43.512Z,6.35
2023-03-17T01:09:50.276Z,4.95
2023-03-17T01:13:53.958Z,5.57
2023-03-17T01:17:57.397Z,7.78
2023-03-17T01:22:04.899Z,4.95
2023-03-17T01:26:11.380Z,5.82
2023-03-17T01:30:25.081Z,7.82
2023-03-17T01:34:30.589Z,5.28
2023-03-17T01:38:43.940Z,6.63
2023-03-17T01:42:54.534Z,6.20
2023-03-17T01:46:58.970Z,5.40
2023-03-17T01:51:07.822Z,5.82
2023-03-17T01:55:15.121Z,7.07
2023-03-17T01:59:21.469Z,6.43
2023-03-17T02:03:26.398Z,6.70
2023-03-17T02:07:30.117Z,6.65
2023-03-17T02:11:36.150Z,7.47
2023-03-17T02:15:41.911Z,7.13
2023-03-17T02:19:50.592Z,7.18
2023-03-17T02:23:56.283Z,6.45
2023-03-17T02:28:03.342Z,6.00
2023-03-17T02:32:07.681Z,6.20
2023-03-17T02:36:13.610Z,6.93
2023-03-17T02:40:21.187Z,6.40
2023-03-17T02:44:25.236Z,7.00
2023-03-17T02:48:28.342Z,6.72
2023-03-17T02:52:32.274Z,6.50
2023-03-17T02:56:36.806Z,8.63
2023-03-17T03:00:41.922Z,6.72
2023-03-17T03:04:45.922Z,8.85
2023-03-17T03:08:49.753Z,6.40
2023-03-17T03:12:54.002Z,7.00
2023-03-17T03:16:57.560Z,6.60
2023-03-17T03:21:01.250Z,6.50
2023-03-17T03:25:05.025Z,7.05
2023-03-17T03:29:12.439Z,8.70
2023-03-17T03:33:16.026Z,6.82
2023-03-17T03:37:19.636Z,7.32
2023-03-17T03:41:23.861Z,6.05
2023-03-17T03:45:29.239Z,5.70
2023-03-17T03:49:32.323Z,9.23
2023-03-17T03:53:35.867Z,5.13
2023-03-17T03:57:39.882Z,5.20
2023-03-17T04:01:44.661Z,4.38
2023-03-17T04:05:48.877Z,6.07
2023-03-17T04:09:52.697Z,5.07
2023-03-17T04:13:56.652Z,5.28
2023-03-17T04:18:02.168Z,7.70
2023-03-17T04:22:05.956Z,5.40
2023-03-17T04:26:11.131Z,4.43
2023-03-17T04:30:18.795Z,6.05
2023-03-17T04:34:23.803Z,4.63
2023-03-17T04:38:29.592Z,4.15
2023-03-17T04:42:33.266Z,4.97
2023-03-17T04:46:36.880Z,6.18
2023-03-17T04:50:42.603Z,4.97
2023-03-17T04:54:45.704Z,4.82
2023-03-17T04:58:49.302Z,5.07
2023-03-17T05:03:01.555Z,5.63
2023-03-17T05:07:10.241Z,5.70
2023-03-17T05:11:14.297Z,5.30
2023-03-17T05:15:21.899Z,5.20
2023-03-17T05:19:24.801Z,5.10
2023-03-17T05:23:29.797Z,5.20
2023-03-17T05:27:33.741Z,5.18
2023-03-17T05:31:50.920Z,5.40
2023-03-17T05:35:54.420Z,4.88
2023-03-17T05:39:59.749Z,6.03
2023-03-17T05:44:03.505Z,6.93
2023-03-17T05:48:07.994Z,10.27
2023-03-17T05:52:11.944Z,5.63
2023-03-17T05:56:20.191Z,6.85
2023-03-17T06:00:26.782Z,5.97
2023-03-17T06:04:30.603Z,7.38
2023-03-17T06:08:37.160Z,7.15
2023-03-17T06:12:42.638Z,7.93
2023-03-17T06:16:46.474Z,6.78
2023-03-17T06:20:50.048Z,8.23
2023-03-17T06:24:55.434Z,7.65
2023-03-17T06:29:05.295Z,7.97
2023-03-17T06:33:11.524Z,9.07
2023-03-17T06:37:14.936Z,9.15
2023-03-17T06:41:19.371Z,12.50
2023-03-17T06:45:27.839Z,9.80
2023-03-17T06:49:33.490Z,9.85
2023-03-17T06:53:37.324Z,12.25
2023-03-17T06:57:43.954Z,10.55
2023-03-17T07:01:52.602Z,12.23
2023-03-17T07:05:57.158Z,9.48
2023-03-17T07:10:01.646Z,11.52
2023-03-17T07:14:09.659Z,9.48
2023-03-17T07:18:15.605Z,10.30
2023-03-17T07:22:22.540Z,10.88
2023-03-17T07:26:25.516Z,11.55
2023-03-17T07:30:32.609Z,10.77
2023-03-17T07:34:42.205Z,10.02
2023-03-17T07:38:47.081Z,11.10
2023-03-17T07:42:53.609Z,9.95
2023-03-17T07:47:03.695Z,9.75
2023-03-17T07:55:29.566Z,9.30
2023-03-17T07:59:42.168Z,9.55
2023-03-17T08:03:48.799Z,9.90
2023-03-17T08:07:55.017Z,7.85
2023-03-17T08:12:00.067Z,9.13
2023-03-17T08:16:11.545Z,8.18
2023-03-17T08:20:15.502Z,8.45
2023-03-17T08:24:22.408Z,8.25
2023-03-17T08:28:32.405Z,8.88
2023-03-17T08:32:41.204Z,8.32
2023-03-17T08:36:46.843Z,8.25
2023-03-17T08:40:52.562Z,8.70
2023-03-17T08:44:57.466Z,7.38
2023-03-17T08:49:03.880Z,8.35
2023-03-17T08:53:10.073Z,8.48
2023-03-17T08:57:18.014Z,7.78
2023-03-17T09:01:23.376Z,8.18
2023-03-17T09:05:29.533Z,6.88
2023-03-17T09:09:42.270Z,7.55
2023-03-17T09:13:51.934Z,7.63
2023-03-17T09:17:57.497Z,7.30
2023-03-17T09:22:03.461Z,6.45
2023-03-17T09:26:11.468Z,5.43
2023-03-17T09:30:20.963Z,5.70
2023-03-17T09:34:29.411Z,5.38
2023-03-17T09:38:33.759Z,5.47
2023-03-17T09:42:47.226Z,2.47
2023-03-17T09:47:04.973Z,2.85
2023-03-17T09:51:13.439Z,2.53
2023-03-17T09:55:25.252Z,2.10
2023-03-17T09:59:32.618Z,2.35
2023-03-17T10:03:39.435Z,1.98
2023-03-17T10:07:47.198Z,2.10
2023-03-17T10:11:55.161Z,1.92
2023-03-17T10:16:04.096Z,2.00
2023-03-17T10:20:13.968Z,1.42
2023-03-17T10:24:17.156Z,1.98
2023-03-17T10:28:28.488Z,1.98
2023-03-17T10:32:40.242Z,1.50
2023-03-17T10:36:47.237Z,1.65
2023-03-17T10:40:58.325Z,1.42
2023-03-17T10:45:03.392Z,1.17
2023-03-17T10:49:10.875Z,1.13
2023-03-17T10:53:28.575Z,1.30
2023-03-17T10:57:31.675Z,1.20
2023-03-17T11:01:41.377Z,1.02
2023-03-17T11:05:57.139Z,0.90
2023-03-17T11:10:03.605Z,1.15
2023-03-17T11:14:12.053Z,1.00
2023-03-17T11:18:17.916Z,1.00
2023-03-17T11:22:27.521Z,1.10
2023-03-17T11:26:44.552Z,1.00
2023-03-17T11:30:54.475Z,0.98
2023-03-17T11:35:24.523Z,1.02
2023-03-17T11:39:29.512Z,0.90
2023-03-17T11:43:37.303Z,1.20
2023-03-17T11:47:50.907Z,1.00
2023-03-17T11:51:59.784Z,1.48
2023-03-17T11:56:05.093Z,1.15
2023-03-17T12:00:18.128Z,1.10
2023-03-17T12:04:26.330Z,1.02
2023-03-17T12:08:33.410Z,1.00
2023-03-17T12:12:41.065Z,0.88
2023-03-17T12:16:47.517Z,1.10
2023-03-17T12:20:54.437Z,1.40
2023-03-17T12:25:07.005Z,1.30
2023-03-17T12:29:13.991Z,1.00
2023-03-17T12:33:26.381Z,1.25
2023-03-17T12:37:30.110Z,1.33
2023-03-17T12:41:56.890Z,1.10
2023-03-17T12:46:14.381Z,1.30
2023-03-17T12:50:31.932Z,1.20
2023-03-17T12:54:37.051Z,1.00
2023-03-17T12:58:41.932Z,1.27
2023-03-17T13:02:47.548Z,1.20
2023-03-17T13:07:00.805Z,1.10
2023-03-17T13:11:20.969Z,1.05
2023-03-17T13:15:31.006Z,1.13
2023-03-17T13:19:35.209Z,1.38
2023-03-17T13:23:44.395Z,1.17
2023-03-17T13:27:49.973Z,1.35
2023-03-17T13:31:56.257Z,1.13
2023-03-17T13:36:08.711Z,1.58
2023-03-17T13:40:18.275Z,1.10
2023-03-17T13:48:34.230Z,1.00
2023-03-17T13:52:42.918Z,1.08
2023-03-17T13:56:51.301Z,1.10
2023-03-17T14:01:00.308Z,0.98
2023-03-17T14:05:06.304Z,1.10
2023-03-17T14:09:12.003Z,1.10
2023-03-17T14:13:21.330Z,1.10
2023-03-17T14:21:32.471Z,1.63
2023-03-17T14:25:37.159Z,1.30
2023-03-17T14:29:41.256Z,1.15
2023-03-17T14:33:44.413Z,1.20
2023-03-17T14:37:47.223Z,1.10
2023-03-17T14:42:00.090Z,1.30
2023-03-17T14:46:05.899Z,1.30
2023-03-17T14:50:16.308Z,1.45
2023-03-17T14:54:21.232Z,1.05
2023-03-17T14:58:27.139Z,1.23
2023-03-17T15:02:34.459Z,1.23
2023-03-17T15:06:37.636Z,1.70
2023-03-17T15:10:43.317Z,2.00
2023-03-17T15:14:47.063Z,1.40
2023-03-17T15:18:58.713Z,1.60
2023-03-17T15:23:05.638Z,1.65
2023-03-17T15:27:15.679Z,2.13
2023-03-17T15:31:23.375Z,1.83
2023-03-17T15:35:28.190Z,2.80
2023-03-17T15:39:30.981Z,1.90
2023-03-17T15:43:34.761Z,1.50
2023-03-17T15:47:40.031Z,1.63
2023-03-17T15:51:44.220Z,1.70
2023-03-17T15:55:47.230Z,1.40
2023-03-17T15:59:50.543Z,1.25
2023-03-17T16:07:58.042Z,2.92
2023-03-17T16:12:00.826Z,2.20
2023-03-17T16:16:06.629Z,1.88
2023-03-17T16:20:20.481Z,2.13
2023-03-17T16:24:25.922Z,2.03
2023-03-17T16:28:30.742Z,2.50
2023-03-17T16:32:33.790Z,3.72
2023-03-17T16:36:37.215Z,2.85
2023-03-17T16:40:41.867Z,10.00
2023-03-17T16:44:44.853Z,2.50
2023-03-17T16:48:48.355Z,1.85
2023-03-17T16:52:52.241Z,2.60
2023-03-17T16:56:56.455Z,2.20
2023-03-17T17:01:01.313Z,2.17
2023-03-17T17:05:07.377Z,2.35
2023-03-17T17:09:10.960Z,3.30
2023-03-17T17:13:15.414Z,3.55
2023-03-17T17:17:18.296Z,3.80
2023-03-17T17:21:21.237Z,3.97
2023-03-17T17:25:24.187Z,3.63
2023-03-17T17:29:30.128Z,3.38
2023-03-17T17:33:34.475Z,2.97
2023-03-17T17:37:37.287Z,2.83
2023-03-17T17:41:39.941Z,3.78
2023-03-17T17:45:44.210Z,2.40
2023-03-17T17:49:47.095Z,2.38
2023-03-17T17:53:49.921Z,2.30
2023-03-17T17:57:52.717Z,2.95
2023-03-17T18:01:57.194Z,2.50
2023-03-17T18:06:00.859Z,2.47
2023-03-17T18:14:07.019Z,2.40
2023-03-17T18:18:11.512Z,2.67
2023-03-17T18:22:14.733Z,2.70
2023-03-17T18:26:20.271Z,3.70
2023-03-17T18:30:24.892Z,2.92
2023-03-17T18:34:31.868Z,3.10
2023-03-17T18:38:37.035Z,3.25
2023-03-17T18:42:39.996Z,2.92
2023-03-17T18:46:43.163Z,3.25
2023-03-17T18:50:48.577Z,3.08
2023-03-17T18:54:51.464Z,2.95
2023-03-17T18:58:54.688Z,3.05
2023-03-17T19:02:58.368Z,3.05
2023-03-17T19:07:02.804Z,3.80
2023-03-17T19:11:07.498Z,3.00
2023-03-17T19:15:12.688Z,3.75
2023-03-17T19:19:15.434Z,6.82
2023-03-17T19:23:20.208Z,3.67
2023-03-17T19:27:23.233Z,3.75
2023-03-17T19:31:26.272Z,4.60
2023-03-17T19:35:29.058Z,2.95
2023-03-17T19:39:34.176Z,2.72
2023-03-17T19:43:41.130Z,3.08
2023-03-17T19:47:44.185Z,3.65
2023-03-17T19:51:47.658Z,3.80
2023-03-17T19:55:52.559Z,5.15
2023-03-17T19:59:55.740Z,5.05
2023-03-17T20:03:58.574Z,5.80
2023-03-17T20:08:01.618Z,5.32
2023-03-17T20:12:06.656Z,4.95
2023-03-17T20:16:10.016Z,5.10
2023-03-17T20:20:14.549Z,5.18
2023-03-17T20:24:17.614Z,5.10
2023-03-17T20:28:22.544Z,5.18
2023-03-17T20:32:27.574Z,5.13
2023-03-17T20:36:30.474Z,5.05
2023-03-17T20:40:33.383Z,4.53
2023-03-17T20:44:38.882Z,4.90
2023-03-17T20:48:47.774Z,5.10
2023-03-17T20:52:50.649Z,5.22
2023-03-17T20:56:55.935Z,5.57
2023-03-17T21:01:01.875Z,6.20
2023-03-17T21:05:07.733Z,4.60
2023-03-17T21:09:11.199Z,5.32
2023-03-17T21:13:14.070Z,4.75
2023-03-17T21:17:18.404Z,4.35
2023-03-17T21:21:22.321Z,4.32
2023-03-17T21:25:25.610Z,4.13
2023-03-17T21:29:29.047Z,3.90
2023-03-17T21:33:35.179Z,3.90
2023-03-17T21:37:38.196Z,3.53
2023-03-17T21:41:41.767Z,4.15
2023-03-17T21:45:44.690Z,4.78
2023-03-17T21:49:49.351Z,3.92
2023-03-17T21:53:56.182Z,4.88
2023-03-17T21:58:00.265Z,4.80
2023-03-17T22:02:04.429Z,4.68
2023-03-17T22:06:09.532Z,4.93
2023-03-17T22:10:13.656Z,5.35
2023-03-17T22:14:20.166Z,6.32
2023-03-17T22:18:23.798Z,4.93
2023-03-17T22:22:29.031Z,5.82
2023-03-17T22:26:31.971Z,7.72
2023-03-17T22:30:38.880Z,5.82
2023-03-17T22:34:42.720Z,5.70
2023-03-17T22:38:47.925Z,8.10
2023-03-17T22:42:51.757Z,6.25
2023-03-17T22:50:57.551Z,9.13
2023-03-17T22:55:02.476Z,9.13
2023-03-17T22:59:05.584Z,11.77
2023-03-17T23:03:08.938Z,11.77
2023-03-17T23:07:11.882Z,17.98
2023-03-17T23:11:19.709Z,14.60
2023-03-17T23:15:23.438Z,20.02
2023-03-17T23:23:29.683Z,13.70
2023-03-17T23:27:34.511Z,16.80
2023-03-17T23:31:38.468Z,13.32
2023-03-17T23:35:41.260Z,12.32
2023-03-17T23:39:44.893Z,14.32
2023-03-17T23:43:49.131Z,21.15
2023-03-17T23:47:53.181Z,13.77
2023-03-17T23:51:56.275Z,11.52
2023-03-17T23:55:59.744Z,16.20
